Time;durP1;ratioP1;P1;durP2;ratioP2;P2;SDS_P1;SDS_P2;PMS_P1;PMS_P2;Temp;Humidity;BMP_temperature;BMP_pressure;BME280_temperature;BME280_humidity;BME280_pressure;Samples;Min_cycle;Max_cycle;Signal;HPM_P1;HPM_P2
2023/06/27 00:02:12;;;;;;;7.82;5.68;;;;;;;23.19;39.67;99543.09;5134693;27;20198;-63
2023/06/27 00:04:40;;;;;;;13.45;6.28;;;;;;;23.18;39.64;99544.06;5139320;27;20199;-61
2023/06/27 00:07:10;;;;;;;8.13;6.10;;;;;;;23.20;39.81;99544.81;5131233;27;20211;-61
2023/06/27 00:09:39;;;;;;;6.15;5.55;;;;;;;23.26;40.76;99582.94;5131969;27;20195;-62
2023/06/27 00:12:09;;;;;;;6.03;4.90;;;;;;;23.21;40.52;99580.66;5129919;27;20195;-61
2023/06/27 00:14:37;;;;;;;7.50;4.65;;;;;;;23.07;41.31;99563.22;5131584;27;20640;-61
2023/06/27 00:17:10;;;;;;;6.13;4.88;;;;;;;22.97;41.80;99558.72;5131760;28;20282;-62
2023/06/27 00:19:38;;;;;;;7.80;4.60;;;;;;;22.87;41.81;99559.34;5129683;27;20248;-61
2023/06/27 00:22:09;;;;;;;7.03;4.72;;;;;;;22.84;42.05;99569.25;5129322;27;20673;-62
2023/06/27 00:24:39;;;;;;;6.53;4.47;;;;;;;22.81;42.25;99574.69;5122550;27;20221;-62
2023/06/27 00:27:08;;;;;;;6.30;5.00;;;;;;;22.80;42.43;99570.41;5131196;27;20206;-62
2023/06/27 00:29:36;;;;;;;6.40;4.70;;;;;;;22.77;42.72;99570.63;5130398;27;20200;-62
2023/06/27 00:32:05;;;;;;;7.00;5.25;;;;;;;22.74;42.64;99578.69;5130340;27;20203;-63
2023/06/27 00:34:33;;;;;;;8.82;6.50;;;;;;;22.70;42.80;99577.25;5130976;27;20230;-62
2023/06/27 00:37:01;;;;;;;10.10;7.05;;;;;;;22.63;43.09;99561.91;5124873;27;20256;-63
2023/06/27 00:39:29;;;;;;;8.88;6.13;;;;;;;22.58;43.28;99574.50;5129676;27;20260;-62
2023/06/27 00:41:59;;;;;;;8.90;6.00;;;;;;;22.52;43.34;99572.31;5123138;27;20219;-62
2023/06/27 00:44:28;;;;;;;6.70;5.47;;;;;;;22.46;43.34;99564.88;5134055;27;20191;-62
2023/06/27 00:46:56;;;;;;;5.38;4.10;;;;;;;22.38;43.99;99561.91;5134320;27;20776;-62
2023/06/27 00:49:24;;;;;;;4.80;4.32;;;;;;;22.27;44.50;99567.03;5134852;27;20235;-62
2023/06/27 00:51:54;;;;;;;6.07;4.88;;;;;;;22.16;45.09;99568.59;5128987;27;20199;-61
2023/06/27 00:54:23;;;;;;;5.63;4.40;;;;;;;22.07;45.18;99566.56;5134005;27;20280;-62
2023/06/27 00:56:54;;;;;;;5.07;4.45;;;;;;;21.99;45.68;99574.13;5133035;27;20234;-62
2023/06/27 00:59:23;;;;;;;5.32;4.43;;;;;;;21.93;46.18;99577.13;5134555;27;20603;-62
2023/06/27 01:01:51;;;;;;;6.38;3.97;;;;;;;21.88;46.52;99573.97;5134919;27;20199;-61
2023/06/27 01:04:19;;;;;;;4.78;4.32;;;;;;;21.84;46.89;99578.59;5138887;27;20289;-62
2023/06/27 01:06:54;;;;;;;5.50;4.38;;;;;;;21.80;47.06;99577.13;5134056;27;20564;-62
2023/06/27 01:09:28;;;;;;;5.50;4.10;;;;;;;21.77;47.43;99579.09;5132977;27;20651;-62
2023/06/27 01:12:05;;;;;;;5.57;4.20;;;;;;;21.73;48.15;99575.00;5132014;27;20267;-62
2023/06/27 01:14:35;;;;;;;6.88;4.15;;;;;;;21.66;48.31;99579.78;5132519;27;20239;-63
2023/06/27 01:17:04;;;;;;;4.68;4.22;;;;;;;21.62;48.90;99573.91;5133289;27;20207;-61
2023/06/27 01:19:34;;;;;;;5.43;4.50;;;;;;;21.56;49.18;99583.94;5135401;27;20558;-62
2023/06/27 01:22:06;;;;;;;4.97;4.13;;;;;;;21.52;49.57;99579.84;5133557;27;20203;-64
2023/06/27 01:24:37;;;;;;;4.30;3.90;;;;;;;21.47;50.92;99580.13;5133956;27;20234;-62
2023/06/27 01:27:05;;;;;;;4.53;4.03;;;;;;;21.40;51.36;99584.94;5134561;27;20208;-61
2023/06/27 01:29:34;;;;;;;4.80;3.53;;;;;;;21.37;51.77;99579.03;5132504;27;20654;-61
2023/06/27 01:32:08;;;;;;;4.30;3.88;;;;;;;21.29;52.59;99581.28;5136510;27;20588;-60
2023/06/27 01:34:46;;;;;;;4.95;4.05;;;;;;;21.18;53.34;99577.53;5131757;27;20245;-61
2023/06/27 01:37:21;;;;;;;6.68;3.90;;;;;;;21.12;53.54;99572.69;5134474;27;20556;-63
2023/06/27 01:39:57;;;;;;;4.97;3.58;;;;;;;21.06;54.06;99570.47;5134224;27;20259;-61
2023/06/27 01:42:29;;;;;;;4.75;3.80;;;;;;;21.05;54.48;99573.16;5125773;27;20218;-62
2023/06/27 01:44:58;;;;;;;4.97;4.30;;;;;;;21.03;54.61;99570.66;5135303;27;20203;-61
2023/06/27 01:47:26;;;;;;;4.20;3.80;;;;;;;21.05;54.97;99573.16;5131110;27;20237;-61
2023/06/27 01:49:54;;;;;;;4.13;3.72;;;;;;;21.03;55.17;99575.88;5133916;27;20685;-62
2023/06/27 01:52:22;;;;;;;5.93;4.10;;;;;;;21.01;55.65;99575.13;5134546;27;20235;-62
2023/06/27 01:54:52;;;;;;;4.20;3.80;;;;;;;20.99;55.79;99567.38;5132975;27;20219;-62
2023/06/27 01:57:20;;;;;;;6.22;3.88;;;;;;;20.99;55.92;99564.75;5133800;27;20207;-62
2023/06/27 01:59:48;;;;;;;4.45;3.88;;;;;;;20.91;56.48;99568.78;5130709;27;20203;-63
2023/06/27 02:02:16;;;;;;;4.40;4.00;;;;;;;20.84;56.79;99572.69;5130009;27;20199;-61
2023/06/27 02:04:44;;;;;;;4.75;4.32;;;;;;;20.81;57.15;99572.91;5134603;27;20195;-63
2023/06/27 02:07:11;;;;;;;4.53;3.75;;;;;;;20.77;57.40;99574.00;5134304;27;20650;-63
2023/06/27 02:09:40;;;;;;;4.88;4.38;;;;;;;20.72;57.92;99576.91;5134180;27;20244;-62
2023/06/27 02:12:11;;;;;;;7.30;4.13;;;;;;;20.68;58.48;99580.66;5133069;27;20199;-62
2023/06/27 02:14:39;;;;;;;5.07;4.10;;;;;;;20.58;58.98;99572.50;5133632;27;20295;-63
2023/06/27 02:17:07;;;;;;;4.68;4.28;;;;;;;20.54;59.40;99572.81;5135949;27;20626;-62
2023/06/27 02:19:35;;;;;;;7.85;4.35;;;;;;;20.53;59.61;99566.72;5131877;27;21115;-62
2023/06/27 02:22:03;;;;;;;7.85;4.07;;;;;;;20.57;59.28;99565.59;5134504;27;20230;-62
2023/06/27 02:24:31;;;;;;;4.75;4.20;;;;;;;20.62;59.48;99558.34;5132749;27;20252;-62
2023/06/27 02:26:59;;;;;;;4.72;3.63;;;;;;;20.61;59.52;99568.88;5131605;27;20207;-61
2023/06/27 02:29:28;;;;;;;6.13;4.00;;;;;;;20.60;59.78;99573.28;5132879;27;20209;-63
2023/06/27 02:31:56;;;;;;;4.97;4.47;;;;;;;20.56;60.16;99577.00;5133646;27;20207;-62
2023/06/27 02:34:24;;;;;;;5.30;4.50;;;;;;;20.49;60.84;99576.53;5130948;27;20812;-61
2023/06/27 02:36:52;;;;;;;7.55;4.63;;;;;;;20.47;61.25;99572.28;5130430;27;20616;-63
2023/06/27 02:39:20;;;;;;;7.90;4.50;;;;;;;20.39;61.80;99574.53;5133497;27;20252;-61
2023/06/27 02:41:48;;;;;;;4.82;4.32;;;;;;;20.33;62.52;99561.81;5129514;27;20553;-62
2023/06/27 02:44:16;;;;;;;18.70;16.85;;;;;;;20.20;63.45;99554.69;5127230;27;20286;-61
2023/06/27 02:46:45;;;;;;;6.97;4.45;;;;;;;20.14;64.07;99552.44;5132802;27;20226;-61
2023/06/27 02:49:13;;;;;;;5.53;5.03;;;;;;;20.09;64.75;99551.03;5133564;27;20646;-62
2023/06/27 02:51:41;;;;;;;9.35;5.05;;;;;;;20.06;65.26;99546.81;5133437;27;20606;-64
2023/06/27 02:54:09;;;;;;;5.13;4.55;;;;;;;20.05;65.31;99539.91;5128283;27;20660;-60
2023/06/27 02:56:37;;;;;;;4.75;4.35;;;;;;;20.07;65.66;99531.94;5130879;27;22221;-61
2023/06/27 02:59:05;;;;;;;6.43;4.80;;;;;;;20.10;65.87;99532.63;5132192;27;20256;-62
2023/06/27 03:01:33;;;;;;;5.13;4.63;;;;;;;20.11;65.76;99523.84;5128805;27;20205;-61
2023/06/27 03:04:03;;;;;;;7.32;4.95;;;;;;;20.10;65.68;99527.38;5128272;27;20286;-61
2023/06/27 03:06:46;;;;;;;6.50;5.18;;;;;;;20.12;66.00;99525.53;5130802;27;20566;-61
2023/06/27 03:09:14;;;;;;;6.30;5.28;;;;;;;20.14;65.77;99515.84;5125969;27;20213;-63
2023/06/27 03:11:42;;;;;;;6.65;5.18;;;;;;;20.19;65.87;99505.91;5131744;27;20729;-63
2023/06/27 03:14:10;;;;;;;6.30;4.68;;;;;;;20.19;65.75;99510.31;5133393;27;20574;-62
2023/06/27 03:16:38;;;;;;;7.53;4.95;;;;;;;20.15;65.98;99509.66;5131142;27;20219;-62
2023/06/27 03:19:07;;;;;;;6.03;5.40;;;;;;;20.11;66.18;99518.63;5132367;27;20207;-62
2023/06/27 03:21:35;;;;;;;6.03;5.25;;;;;;;20.10;66.35;99516.91;5132858;27;20211;-63
2023/06/27 03:24:04;;;;;;;6.82;5.38;;;;;;;20.12;66.87;99511.63;5133618;27;20227;-62
2023/06/27 03:26:31;;;;;;;6.30;5.15;;;;;;;20.15;66.78;99519.28;5129387;27;20209;-61
2023/06/27 03:28:59;;;;;;;6.05;5.03;;;;;;;20.12;66.86;99520.31;5131825;27;20570;-61
2023/06/27 03:31:27;;;;;;;6.32;5.72;;;;;;;20.13;67.21;99531.59;5132757;27;20198;-62
2023/06/27 03:33:57;;;;;;;8.23;5.43;;;;;;;20.15;68.21;99533.19;5130664;27;20335;-62
2023/06/27 03:36:28;;;;;;;6.45;5.63;;;;;;;20.19;68.24;99521.63;5125289;27;20241;-61
2023/06/27 03:38:56;;;;;;;6.25;4.95;;;;;;;20.18;68.61;99512.09;5132286;27;20795;-62
2023/06/27 03:41:24;;;;;;;6.07;5.22;;;;;;;20.21;68.32;99514.53;5130693;27;20203;-65
2023/06/27 03:43:52;;;;;;;5.85;5.22;;;;;;;20.24;68.38;99519.56;5130322;27;20199;-64
2023/06/27 03:46:20;;;;;;;7.05;5.18;;;;;;;20.23;68.36;99530.97;5128045;27;20603;-63
2023/06/27 03:48:53;;;;;;;6.65;5.47;;;;;;;20.24;68.56;99530.03;5130220;27;20662;-64
2023/06/27 03:51:21;;;;;;;6.13;5.35;;;;;;;20.26;68.65;99538.63;5132162;27;20203;-63
2023/06/27 03:53:50;;;;;;;7.35;5.38;;;;;;;20.27;68.60;99540.31;5130180;27;20203;-63
2023/06/27 03:56:18;;;;;;;6.55;5.18;;;;;;;20.33;68.56;99535.66;5134771;27;20585;-63
2023/06/27 03:58:46;;;;;;;7.10;5.28;;;;;;;20.35;68.10;99536.41;5131981;27;20199;-61
2023/06/27 04:01:14;;;;;;;7.43;4.97;;;;;;;20.36;68.25;99538.94;5129727;27;20207;-61
2023/06/27 04:03:42;;;;;;;5.78;5.18;;;;;;;20.37;68.24;99540.63;5130227;27;20195;-62
2023/06/27 04:06:10;;;;;;;6.13;5.53;;;;;;;20.37;67.91;99555.47;5128517;27;20208;-62
2023/06/27 04:08:38;;;;;;;5.70;4.75;;;;;;;20.28;68.02;99562.91;5132508;27;20230;-62
2023/06/27 04:11:07;;;;;;;6.15;5.00;;;;;;;20.20;67.89;99559.91;5132841;27;20214;-62
2023/06/27 04:13:35;;;;;;;6.05;5.18;;;;;;;20.14;68.33;99565.53;5132478;27;20203;-62
2023/06/27 04:16:03;;;;;;;5.75;5.13;;;;;;;20.12;68.71;99562.16;5131056;27;20650;-62
2023/06/27 04:18:31;;;;;;;6.45;5.47;;;;;;;20.08;68.93;99560.66;5133881;27;20572;-63
2023/06/27 04:20:59;;;;;;;6.38;5.15;;;;;;;20.05;69.49;99563.44;5137535;27;20199;-62
2023/06/27 04:23:27;;;;;;;9.43;5.70;;;;;;;20.07;69.56;99564.19;5128114;27;20205;-61
2023/06/27 04:26:04;;;;;;;5.85;5.13;;;;;;;20.05;69.18;99567.84;5134913;27;20198;-62
2023/06/27 04:28:33;;;;;;;7.85;5.45;;;;;;;20.03;69.59;99567.94;5135737;27;20226;-63
2023/06/27 04:31:03;;;;;;;5.78;5.18;;;;;;;20.03;69.50;99560.09;5137978;27;20218;-63
2023/06/27 04:33:31;;;;;;;7.43;5.78;;;;;;;20.03;69.78;99563.53;5134976;27;20599;-62
2023/06/27 04:36:01;;;;;;;7.70;5.30;;;;;;;20.06;69.86;99565.13;5137760;27;20214;-62
2023/06/27 04:38:30;;;;;;;10.27;5.63;;;;;;;20.08;69.52;99565.88;5135475;27;20676;-63
2023/06/27 04:40:58;;;;;;;7.90;5.47;;;;;;;20.05;69.78;99567.84;5131485;27;20617;-62
2023/06/27 04:43:27;;;;;;;7.50;6.20;;;;;;;20.01;69.86;99559.31;5135053;27;20264;-62
2023/06/27 04:45:56;;;;;;;6.70;5.97;;;;;;;19.96;70.38;99559.59;5133244;27;20220;-62
2023/06/27 04:48:24;;;;;;;6.50;5.28;;;;;;;19.90;70.38;99543.41;5133396;27;20206;-62
2023/06/27 04:50:53;;;;;;;6.93;5.88;;;;;;;19.91;70.92;99542.47;5135417;27;20658;-62
2023/06/27 04:53:22;;;;;;;6.75;5.75;;;;;;;19.97;71.03;99536.91;5135320;27;20203;-62
2023/06/27 04:55:50;;;;;;;5.90;5.20;;;;;;;20.01;70.94;99534.00;5131910;27;20213;-62
2023/06/27 04:58:19;;;;;;;5.80;4.95;;;;;;;20.05;71.10;99532.06;5134564;27;20210;-63
2023/06/27 05:00:48;;;;;;;5.65;5.05;;;;;;;20.11;70.75;99531.69;5132068;27;20244;-62
2023/06/27 05:03:17;;;;;;;7.13;5.45;;;;;;;20.10;70.39;99521.31;5135949;27;20203;-63
2023/06/27 05:05:46;;;;;;;5.53;4.90;;;;;;;20.13;70.62;99526.38;5128664;27;20572;-63
2023/06/27 05:08:13;;;;;;;7.82;5.00;;;;;;;20.10;70.67;99522.16;5132210;27;20235;-61
2023/06/27 05:10:41;;;;;;;5.63;5.03;;;;;;;20.07;71.07;99524.09;5134449;27;20562;-63
2023/06/27 05:13:10;;;;;;;7.68;6.25;;;;;;;20.01;71.11;99518.31;5134856;27;20578;-62
2023/06/27 05:15:38;;;;;;;6.20;5.50;;;;;;;20.02;71.40;99517.38;5133312;27;20706;-62
2023/06/27 05:18:27;;;;;;;5.47;4.95;;;;;;;20.02;71.94;99517.38;5129213;27;20211;-62
2023/06/27 05:20:55;;;;;;;7.72;5.25;;;;;;;20.02;71.92;99513.91;5131759;27;20248;-63
2023/06/27 05:23:23;;;;;;;7.32;5.35;;;;;;;19.98;71.96;99507.19;5135447;27;20280;-62
2023/06/27 05:25:51;;;;;;;5.82;5.13;;;;;;;19.95;71.99;99502.13;5134049;27;20234;-62
2023/06/27 05:28:19;;;;;;;5.50;5.00;;;;;;;19.90;72.86;99504.19;5126776;27;20633;-64
2023/06/27 05:30:48;;;;;;;7.63;5.70;;;;;;;19.91;73.10;99511.09;5129388;27;20746;-62
2023/06/27 05:33:16;;;;;;;7.82;5.32;;;;;;;19.88;73.51;99514.72;5124420;27;20227;-62
2023/06/27 05:35:45;;;;;;;5.38;4.85;;;;;;;19.88;73.84;99522.56;5124815;27;21821;-62
2023/06/27 05:38:13;;;;;;;9.38;5.40;;;;;;;19.85;73.79;99521.94;5128267;27;20230;-62
2023/06/27 05:40:41;;;;;;;5.43;4.78;;;;;;;19.80;74.88;99519.56;5122971;27;20196;-62
2023/06/27 05:43:09;;;;;;;8.38;4.60;;;;;;;19.78;75.15;99532.75;5120983;27;20226;-62
2023/06/27 05:45:37;;;;;;;6.72;4.72;;;;;;;19.66;75.53;99530.84;5133322;27;20199;-61
2023/06/27 05:48:06;;;;;;;6.53;4.28;;;;;;;19.57;75.76;99523.47;5131068;27;20292;-62
2023/06/27 05:50:34;;;;;;;5.88;4.65;;;;;;;19.55;76.54;99530.53;5126173;27;20203;-63
2023/06/27 05:53:03;;;;;;;5.65;4.65;;;;;;;19.59;76.63;99526.00;5130750;27;20211;-62
2023/06/27 05:55:31;;;;;;;4.28;3.50;;;;;;;19.58;75.63;99545.22;5126637;27;20191;-61
2023/06/27 05:57:59;;;;;;;2.53;2.33;;;;;;;19.38;71.99;99538.50;5125136;27;20222;-62
2023/06/27 06:00:27;;;;;;;3.35;2.83;;;;;;;19.19;72.35;99547.38;5132990;27;20218;-60
2023/06/27 06:02:55;;;;;;;5.30;2.70;;;;;;;19.05;71.75;99552.50;5142036;27;20241;-61
2023/06/27 06:05:23;;;;;;;3.25;2.50;;;;;;;18.97;72.01;99559.91;5131785;27;20203;-62
2023/06/27 06:07:51;;;;;;;2.80;2.50;;;;;;;18.92;71.90;99556.69;5139400;27;20195;-61
2023/06/27 06:10:21;;;;;;;3.28;2.38;;;;;;;18.85;71.70;99556.16;5132985;27;20211;-62
2023/06/27 06:12:50;;;;;;;3.55;2.53;;;;;;;18.78;71.60;99571.34;5133294;27;20226;-61
2023/06/27 06:15:20;;;;;;;2.55;2.22;;;;;;;18.76;71.69;99578.41;5133743;27;20223;-63
2023/06/27 06:17:48;;;;;;;3.70;2.40;;;;;;;18.75;72.16;99581.94;5132435;27;20262;-62
2023/06/27 06:20:16;;;;;;;3.63;2.20;;;;;;;18.69;71.71;99587.44;5137245;27;20207;-62
2023/06/27 06:22:44;;;;;;;2.30;2.10;;;;;;;18.65;72.40;99582.47;5128188;27;20195;-60
2023/06/27 06:25:12;;;;;;;4.47;2.40;;;;;;;18.60;72.83;99580.09;5133705;27;20238;-62
2023/06/27 06:27:42;;;;;;;2.40;2.20;;;;;;;18.59;73.00;99602.75;5134151;27;20199;-62
2023/06/27 06:30:11;;;;;;;4.05;2.30;;;;;;;18.57;73.04;99598.53;5128698;27;20207;-61
2023/06/27 06:32:39;;;;;;;4.53;2.03;;;;;;;18.54;73.43;99598.69;5128153;27;20538;-61
2023/06/27 06:35:08;;;;;;;7.10;2.22;;;;;;;18.51;73.42;99604.88;5135074;27;20230;-62
2023/06/27 06:37:36;;;;;;;5.85;2.55;;;;;;;18.43;73.76;99601.00;5119737;27;20211;-62
2023/06/27 06:40:06;;;;;;;3.22;2.47;;;;;;;18.42;74.67;99599.31;5123139;27;20561;-62
2023/06/27 06:42:34;;;;;;;4.75;2.53;;;;;;;18.43;74.45;99603.59;5131606;27;20202;-63
2023/06/27 06:45:04;;;;;;;6.82;2.70;;;;;;;18.46;74.26;99606.91;5120782;27;20200;-62
2023/06/27 06:47:32;;;;;;;4.85;2.80;;;;;;;18.50;74.20;99607.59;5136152;27;20256;-62
2023/06/27 06:50:00;;;;;;;8.65;3.00;;;;;;;18.54;72.97;99601.28;5129614;27;20586;-63
2023/06/27 06:52:29;;;;;;;5.22;3.20;;;;;;;18.55;73.87;99605.56;5131019;27;20252;-73
2023/06/27 06:54:57;;;;;;;5.38;3.10;;;;;;;18.58;73.82;99606.25;5131392;27;20207;-61
2023/06/27 06:57:26;;;;;;;5.45;2.97;;;;;;;18.71;73.71;99605.66;5130003;27;20227;-61
2023/06/27 06:59:54;;;;;;;5.43;2.92;;;;;;;18.87;72.89;99616.16;5132538;27;20650;-61
2023/06/27 07:02:23;;;;;;;4.72;2.97;;;;;;;19.00;72.26;99612.81;5137491;27;20316;-62
2023/06/27 07:04:51;;;;;;;7.82;3.28;;;;;;;19.13;71.77;99606.94;5128481;27;20208;-62
2023/06/27 07:07:19;;;;;;;4.78;3.00;;;;;;;19.26;70.74;99608.81;5133064;27;20207;-61
2023/06/27 07:09:48;;;;;;;3.53;2.83;;;;;;;19.41;70.33;99616.72;5122618;27;20203;-61
2023/06/27 07:12:16;;;;;;;4.85;2.70;;;;;;;19.60;69.43;99611.31;5132078;27;20585;-61
2023/06/27 07:14:43;;;;;;;4.10;2.95;;;;;;;19.76;68.43;99613.00;5132642;27;20286;-62
2023/06/27 07:17:11;;;;;;;6.15;2.90;;;;;;;19.97;67.52;99610.97;5130266;27;20203;-61
2023/06/27 07:19:42;;;;;;;4.65;2.72;;;;;;;20.25;67.11;99615.44;5131798;27;20206;-61
2023/06/27 07:22:10;;;;;;;3.45;2.58;;;;;;;20.75;66.02;99623.88;5130305;27;20286;-61
2023/06/27 07:24:38;;;;;;;3.97;2.80;;;;;;;21.40;62.60;99607.69;5136748;27;20200;-61
2023/06/27 07:27:07;;;;;;;6.15;2.67;;;;;;;21.95;59.81;99617.22;5128887;27;20552;-60
2023/06/27 07:29:36;;;;;;;4.90;2.70;;;;;;;22.09;59.46;99611.94;5135531;27;20575;-62
2023/06/27 07:32:05;;;;;;;5.95;2.90;;;;;;;22.11;58.93;99622.31;5132582;27;20204;-61
2023/06/27 07:34:33;;;;;;;4.13;2.60;;;;;;;21.92;58.65;99609.56;5125007;27;20243;-61
2023/06/27 07:37:03;;;;;;;4.38;2.70;;;;;;;22.53;60.59;99617.78;5122680;27;20598;-61
2023/06/27 07:39:31;;;;;;;3.58;2.28;;;;;;;22.98;54.04;99607.72;5128191;27;20793;-60
2023/06/27 07:41:59;;;;;;;6.93;2.38;;;;;;;23.04;55.33;99613.38;5132163;27;20210;-63
2023/06/27 07:44:27;;;;;;;9.43;2.25;;;;;;;23.60;55.21;99611.13;5128627;27;20595;-60
2023/06/27 07:46:55;;;;;;;6.50;2.45;;;;;;;24.03;50.87;99615.88;5129455;27;20571;-65
2023/06/27 07:49:23;;;;;;;3.75;2.17;;;;;;;24.02;50.41;99619.47;5127542;27;20260;-65
2023/06/27 07:51:51;;;;;;;2.78;2.40;;;;;;;23.92;50.29;99610.59;5128037;27;20252;-62
2023/06/27 07:54:21;;;;;;;6.50;2.33;;;;;;;23.91;50.66;99608.06;5131894;27;20223;-63
2023/06/27 07:56:52;;;;;;;6.07;2.20;;;;;;;23.99;51.13;99606.53;5133279;27;20229;-64
2023/06/27 07:59:20;;;;;;;3.40;2.20;;;;;;;24.07;51.15;99603.34;5135229;27;20216;-61
2023/06/27 08:01:48;;;;;;;3.70;2.25;;;;;;;23.69;50.77;99603.56;5127178;27;20206;-62
2023/06/27 08:04:16;;;;;;;5.05;2.80;;;;;;;23.22;52.46;99611.22;5122013;27;20568;-64
2023/06/27 08:06:44;;;;;;;8.32;3.10;;;;;;;22.86;53.61;99610.19;5129973;27;20215;-61
2023/06/27 08:09:13;;;;;;;8.88;3.30;;;;;;;22.49;54.73;99617.13;5127468;27;20203;-63
2023/06/27 08:11:42;;;;;;;3.10;2.70;;;;;;;22.06;55.35;99614.75;5129764;27;20256;-62
2023/06/27 08:14:10;;;;;;;4.28;2.42;;;;;;;21.67;56.27;99628.66;5130703;27;20199;-63
2023/06/27 08:16:38;;;;;;;5.00;2.85;;;;;;;21.64;57.72;99624.44;5127323;27;20203;-62
2023/06/27 08:19:07;;;;;;;5.55;2.75;;;;;;;21.80;57.04;99616.44;5130646;27;20640;-62
2023/06/27 08:21:38;;;;;;;5.47;3.17;;;;;;;21.85;56.08;99616.16;5130669;27;20195;-63
2023/06/27 08:24:06;;;;;;;4.82;2.85;;;;;;;21.85;55.96;99603.88;5133555;27;20646;-62
2023/06/27 08:26:34;;;;;;;3.00;2.65;;;;;;;21.91;55.89;99624.47;5128653;27;20229;-63
2023/06/27 08:29:03;;;;;;;5.30;2.70;;;;;;;21.87;55.62;99624.75;5130003;27;20203;-62
2023/06/27 08:31:32;;;;;;;3.65;2.65;;;;;;;21.93;56.03;99633.06;5131453;27;20211;-62
2023/06/27 08:34:00;;;;;;;5.03;2.72;;;;;;;22.19;55.14;99631.38;5131795;27;20666;-62
2023/06/27 08:36:28;;;;;;;3.88;2.05;;;;;;;22.17;51.93;99633.28;5130040;27;20203;-61
2023/06/27 08:38:56;;;;;;;3.90;2.28;;;;;;;21.97;52.89;99625.00;5129345;27;20207;-63
2023/06/27 08:41:24;;;;;;;7.40;2.70;;;;;;;21.91;52.73;99626.25;5125003;27;20252;-64
2023/06/27 08:43:52;;;;;;;2.35;1.90;;;;;;;21.93;52.08;99640.09;5130180;27;20192;-64
2023/06/27 08:46:28;;;;;;;4.25;1.80;;;;;;;21.97;51.97;99641.56;5130217;27;20195;-65
2023/06/27 08:49:00;;;;;;;4.25;2.17;;;;;;;22.17;52.10;99649.03;5131396;27;20252;-62
2023/06/27 08:51:30;;;;;;;3.63;2.47;;;;;;;22.45;50.77;99647.16;5128019;27;20195;-63
2023/06/27 08:54:12;;;;;;;3.40;1.67;;;;;;;22.72;49.62;99656.75;5121129;27;20736;-63
2023/06/27 08:56:41;;;;;;;4.32;1.83;;;;;;;23.11;48.18;99648.78;5127724;27;20199;-62
2023/06/27 08:59:14;;;;;;;4.65;1.75;;;;;;;23.31;47.19;99651.81;5127632;27;20215;-63
2023/06/27 09:01:43;;;;;;;3.75;1.85;;;;;;;23.28;45.55;99662.56;5128446;27;20315;-64
2023/06/27 09:04:12;;;;;;;2.67;1.70;;;;;;;22.80;46.20;99664.97;5132400;27;20198;-62
2023/06/27 09:06:40;;;;;;;4.57;2.05;;;;;;;22.35;48.16;99667.09;5131718;27;20249;-62
2023/06/27 09:09:09;;;;;;;3.97;1.92;;;;;;;22.21;48.34;99672.44;5131849;27;20206;-62
2023/06/27 09:11:37;;;;;;;4.18;1.75;;;;;;;22.33;49.33;99674.25;5125995;27;20245;-64
2023/06/27 09:14:06;;;;;;;4.95;1.92;;;;;;;22.63;47.94;99663.47;5132462;27;20203;-61
2023/06/27 09:16:35;;;;;;;3.05;1.58;;;;;;;22.95;45.65;99665.75;5128274;27;20618;-61
2023/06/27 09:19:04;;;;;;;4.05;1.42;;;;;;;23.32;45.88;99662.22;5127613;27;20275;-62
2023/06/27 09:21:34;;;;;;;3.75;1.35;;;;;;;23.57;44.66;99658.69;5131565;27;20196;-63
2023/06/27 09:24:06;;;;;;;3.90;1.85;;;;;;;23.57;44.01;99657.84;5133909;27;20588;-63
2023/06/27 09:26:34;;;;;;;1.95;1.52;;;;;;;23.43;43.82;99666.72;5128853;27;20542;-64
2023/06/27 09:29:02;;;;;;;2.15;1.35;;;;;;;23.35;44.61;99669.06;5130365;27;20199;-63
2023/06/27 09:31:30;;;;;;;5.80;1.63;;;;;;;23.36;44.89;99665.47;5130616;27;20210;-63
2023/06/27 09:34:07;;;;;;;2.15;1.58;;;;;;;23.47;44.76;99660.28;5133219;27;20243;-65
2023/06/27 09:36:38;;;;;;;6.10;1.77;;;;;;;23.54;42.99;99653.66;5131038;27;20199;-64
2023/06/27 09:39:10;;;;;;;6.78;1.60;;;;;;;23.53;43.40;99657.25;5131767;27;20303;-64
2023/06/27 09:41:44;;;;;;;5.05;2.00;;;;;;;23.45;43.25;99659.53;5129146;27;20206;-63
2023/06/27 09:44:14;;;;;;;3.60;1.60;;;;;;;22.82;44.85;99670.94;5136112;27;20285;-63
2023/06/27 09:46:44;;;;;;;3.00;1.50;;;;;;;22.57;45.39;99674.38;5135175;27;20711;-63
2023/06/27 09:49:14;;;;;;;3.78;1.50;;;;;;;22.70;46.51;99669.16;5132776;27;20195;-64
2023/06/27 09:51:45;;;;;;;3.47;1.48;;;;;;;22.89;45.97;99672.22;5127866;27;20287;-64
2023/06/27 09:54:13;;;;;;;4.70;1.80;;;;;;;23.08;44.10;99671.81;5125903;27;20195;-65
2023/06/27 09:56:49;;;;;;;2.38;1.30;;;;;;;23.22;41.13;99669.06;5124330;27;20248;-63
2023/06/27 09:59:18;;;;;;;3.17;1.60;;;;;;;23.27;39.80;99660.84;5137157;27;20455;-64
2023/06/27 10:02:12;;;;;;;9.52;1.48;;;;;;;23.43;40.16;99677.25;5133122;27;20707;-63
2023/06/27 10:04:42;;;;;;;3.00;1.50;;;;;;;23.73;39.68;99668.13;5133292;27;20202;-65
2023/06/27 10:07:13;;;;;;;4.25;1.52;;;;;;;24.08;39.02;99679.56;5130958;27;20260;-66
2023/06/27 10:09:42;;;;;;;6.75;1.30;;;;;;;24.46;37.83;99681.19;5130847;27;20195;-65
2023/06/27 10:12:14;;;;;;;2.92;1.40;;;;;;;24.80;36.63;99687.34;5125585;27;20202;-66
2023/06/27 10:14:43;;;;;;;5.97;1.52;;;;;;;25.46;33.97;99689.34;5126989;27;20207;-66
2023/06/27 10:17:17;;;;;;;4.47;1.40;;;;;;;26.44;33.87;99682.25;5132245;27;20205;-65
2023/06/27 10:19:47;;;;;;;3.53;1.60;;;;;;;27.67;30.79;99679.66;5123651;27;20618;-64
2023/06/27 10:22:17;;;;;;;4.07;1.42;;;;;;;28.63;28.18;99678.06;5135603;27;20207;-63
2023/06/27 10:24:48;;;;;;;2.70;1.10;;;;;;;29.17;27.14;99679.22;5131913;27;20203;-63
2023/06/27 10:27:20;;;;;;;3.20;1.00;;;;;;;29.68;26.94;99677.00;5126166;27;20195;-65
2023/06/27 10:29:49;;;;;;;3.72;1.40;;;;;;;29.84;26.11;99662.06;5127644;27;20210;-65
2023/06/27 10:32:18;;;;;;;3.42;1.25;;;;;;;29.45;27.97;99676.53;5130965;27;20293;-64
2023/06/27 10:34:48;;;;;;;9.13;1.33;;;;;;;28.86;28.79;99687.34;5131788;27;20318;-62
2023/06/27 10:37:25;;;;;;;2.78;1.08;;;;;;;28.64;29.31;99677.09;5130501;27;20273;-65
2023/06/27 10:39:57;;;;;;;2.95;1.15;;;;;;;28.55;28.75;99665.53;5131199;27;20644;-64
2023/06/27 10:42:31;;;;;;;2.40;1.25;;;;;;;28.78;29.06;99673.97;5133172;27;20251;-66
2023/06/27 10:45:02;;;;;;;2.15;1.15;;;;;;;28.48;28.18;99666.25;5123615;27;20566;-66
2023/06/27 10:47:34;;;;;;;1.88;1.08;;;;;;;27.48;29.82;99672.53;5132340;27;20195;-66
2023/06/27 10:50:09;;;;;;;1.52;1.10;;;;;;;26.96;31.16;99671.75;5129768;27;20294;-67
2023/06/27 10:52:39;;;;;;;3.97;1.33;;;;;;;27.02;31.68;99673.00;5133157;27;20710;-66
2023/06/27 10:55:27;;;;;;;4.53;1.30;;;;;;;27.71;29.71;99673.13;5131902;27;20205;-64
2023/06/27 10:58:06;;;;;;;1.77;0.98;;;;;;;28.37;29.03;99659.25;5127173;27;20210;-64
2023/06/27 11:00:35;;;;;;;1.48;1.00;;;;;;;28.86;27.09;99660.84;5121492;27;20250;-63
2023/06/27 11:03:06;;;;;;;3.85;1.23;;;;;;;28.96;26.78;99665.28;5125773;27;20552;-63
2023/06/27 11:05:46;;;;;;;5.25;1.15;;;;;;;29.26;26.97;99649.13;5125884;27;20195;-64
2023/06/27 11:08:16;;;;;;;3.35;1.42;;;;;;;29.83;26.48;99649.78;5129018;27;20298;-64
2023/06/27 11:11:07;;;;;;;3.15;1.00;;;;;;;30.22;24.97;99653.97;5135629;27;20546;-63
2023/06/27 11:13:37;;;;;;;2.70;1.00;;;;;;;29.74;24.74;99657.81;5130573;27;20580;-63
2023/06/27 11:16:06;;;;;;;2.35;1.55;;;;;;;29.69;25.21;99663.59;5134743;27;20206;-61
2023/06/27 11:18:34;;;;;;;2.97;1.38;;;;;;;29.91;25.55;99650.84;5129185;27;20217;-61
2023/06/27 11:21:05;;;;;;;3.75;1.10;;;;;;;29.45;26.14;99644.69;5128888;27;20230;-59
2023/06/27 11:23:34;;;;;;;4.60;1.65;;;;;;;28.29;28.10;99641.41;5131915;27;20199;-60
2023/06/27 11:26:02;;;;;;;2.85;0.98;;;;;;;28.01;29.48;99643.09;5129684;27;20609;-60
2023/06/27 11:28:30;;;;;;;2.65;1.30;;;;;;;27.60;28.61;99657.38;5123329;27;20557;-60
2023/06/27 11:31:00;;;;;;;5.40;1.48;;;;;;;26.73;30.77;99650.75;5126962;27;20207;-61
2023/06/27 11:33:28;;;;;;;4.10;1.35;;;;;;;25.81;32.86;99665.44;5128442;27;20615;-61
2023/06/27 11:35:59;;;;;;;3.13;1.05;;;;;;;25.15;34.55;99670.66;5133844;27;20203;-60
2023/06/27 11:38:29;;;;;;;8.60;1.27;;;;;;;25.44;33.98;99662.22;5132423;27;20202;-59
2023/06/27 11:40:57;;;;;;;11.85;1.52;;;;;;;26.05;32.05;99654.69;5132256;27;20697;-60
2023/06/27 11:43:27;;;;;;;4.57;1.38;;;;;;;26.54;32.56;99641.84;5131646;27;20211;-61
2023/06/27 11:45:58;;;;;;;1.98;1.17;;;;;;;26.93;31.79;99646.38;5133011;27;20199;-61